Time;durP1;ratioP1;P1;durP2;ratioP2;P2;SDS_P1;SDS_P2;PMS_P1;PMS_P2;Temp;Humidity;BMP_temperature;BMP_pressure;BME280_temperature;BME280_humidity;BME280_pressure;Samples;Min_cycle;Max_cycle;Signal;HPM_P1;HPM_P2
2022/03/27 00:00:59;;;;;;;18.40;8.43;;;;;;;;;;5088581;28;20165;-70
2022/03/27 00:03:24;;;;;;;13.73;7.17;;;;;;;;;;5091347;28;20252;-70
2022/03/27 00:05:50;;;;;;;17.50;7.73;;;;;;;;;;5084902;28;20186;-70
2022/03/27 00:08:15;;;;;;;21.63;8.60;;;;;;;;;;5082071;28;21171;-70
2022/03/27 00:13:24;;;;;;;16.67;7.93;;;;;;;;;;5080497;28;20243;-70
2022/03/27 00:15:50;;;;;;;19.17;8.90;;;;;;;;;;5085855;28;20181;-70
2022/03/27 00:18:15;;;;;;;20.13;8.13;;;;;;;;;;5086808;28;20219;-70
2022/03/27 00:20:40;;;;;;;13.73;7.70;;;;;;;;;;5083065;28;20183;-70
2022/03/27 00:23:05;;;;;;;15.47;8.90;;;;;;;;;;5089842;28;20178;-70
2022/03/27 00:25:31;;;;;;;16.90;7.63;;;;;;;;;;5086123;28;20303;-70
2022/03/27 00:27:56;;;;;;;13.93;8.03;;;;;;;;;;5086069;28;20209;-70
2022/03/27 00:30:21;;;;;;;16.93;8.50;;;;;;;;;;5089318;28;20227;-70
2022/03/27 00:32:46;;;;;;;11.97;7.97;;;;;;;;;;5089091;28;20178;-70
2022/03/27 00:35:11;;;;;;;14.73;7.97;;;;;;;;;;5088416;28;20245;-70
2022/03/27 00:37:36;;;;;;;19.13;9.00;;;;;;;;;;5086568;28;20261;-70
2022/03/27 00:40:03;;;;;;;14.32;7.63;;;;;;;;;;5090881;28;20184;-70
2022/03/27 00:42:29;;;;;;;17.93;8.63;;;;;;;;;;5081227;28;20276;-70
2022/03/27 00:44:54;;;;;;;19.87;9.43;;;;;;;;;;5095937;28;20245;-70
2022/03/27 00:47:19;;;;;;;13.77;6.80;;;;;;;;;;5087938;28;20191;-70
2022/03/27 00:49:44;;;;;;;11.50;7.40;;;;;;;;;;5089629;28;20169;-70
2022/03/27 00:52:09;;;;;;;12.80;7.83;;;;;;;;;;5084095;28;20272;-70
2022/03/27 00:54:34;;;;;;;14.30;8.50;;;;;;;;;;5088700;28;20192;-70
2022/03/27 00:57:00;;;;;;;16.77;8.07;;;;;;;;;;5092849;28;20260;-70
2022/03/27 00:59:25;;;;;;;14.40;8.57;;;;;;;;;;5088961;28;20178;-70
2022/03/27 01:01:51;;;;;;;15.43;7.87;;;;;;;;;;5089385;28;20179;-70
2022/03/27 01:04:16;;;;;;;16.37;7.80;;;;;;;;;;5085627;28;20200;-70
2022/03/27 01:06:43;;;;;;;17.13;8.32;;;;;;;;;;5087198;28;20283;-70
2022/03/27 01:11:56;;;;;;;15.33;7.63;;;;;;;;;;5085005;28;20268;-70
2022/03/27 01:14:31;;;;;;;16.43;7.53;;;;;;;;;;5085090;28;20201;-70
2022/03/27 01:17:08;;;;;;;18.37;8.13;;;;;;;;;;5099582;28;20176;-70
2022/03/27 01:19:33;;;;;;;20.37;8.83;;;;;;;;;;5084315;28;20183;-70
2022/03/27 01:22:00;;;;;;;12.80;8.90;;;;;;;;;;5086344;28;20183;-70
2022/03/27 01:24:26;;;;;;;19.63;9.17;;;;;;;;;;5086199;28;20185;-70
2022/03/27 01:26:51;;;;;;;17.70;8.43;;;;;;;;;;5087787;28;20194;-70
2022/03/27 01:29:17;;;;;;;15.27;8.23;;;;;;;;;;5086997;28;20188;-70
2022/03/27 01:31:42;;;;;;;23.20;8.70;;;;;;;;;;5084254;28;20179;-70
2022/03/27 01:34:07;;;;;;;14.70;8.20;;;;;;;;;;5088894;28;20212;-70
2022/03/27 01:36:37;;;;;;;13.93;7.70;;;;;;;;;;5086644;28;20458;-70
2022/03/27 01:39:09;;;;;;;15.80;8.13;;;;;;;;;;5084898;28;20246;-70
2022/03/27 01:41:35;;;;;;;14.93;6.57;;;;;;;;;;5090777;28;20203;-70
2022/03/27 01:44:00;;;;;;;14.27;8.70;;;;;;;;;;5084399;28;20177;-70
2022/03/27 01:46:29;;;;;;;15.60;8.77;;;;;;;;;;5088367;28;20233;-70
2022/03/27 01:48:54;;;;;;;15.70;8.57;;;;;;;;;;5089054;28;20237;-70
2022/03/27 01:51:19;;;;;;;13.87;8.13;;;;;;;;;;5086790;28;20175;-70
2022/03/27 01:53:45;;;;;;;21.47;9.90;;;;;;;;;;5089837;28;20207;-70
2022/03/27 01:56:10;;;;;;;15.13;9.67;;;;;;;;;;5090762;28;20176;-70
2022/03/27 01:58:39;;;;;;;14.33;8.73;;;;;;;;;;5084476;28;20216;-70
2022/03/27 02:01:05;;;;;;;16.60;9.20;;;;;;;;;;5081465;28;20242;-70
2022/03/27 02:03:30;;;;;;;15.53;8.37;;;;;;;;;;5084121;28;20236;-70
2022/03/27 02:05:55;;;;;;;15.10;9.33;;;;;;;;;;5083924;28;20184;-70
2022/03/27 02:08:21;;;;;;;18.93;8.83;;;;;;;;;;5087773;28;20196;-70
2022/03/27 02:10:47;;;;;;;15.83;8.47;;;;;;;;;;5090426;28;20170;-70
2022/03/27 02:13:12;;;;;;;15.47;9.27;;;;;;;;;;5082318;28;20227;-70
2022/03/27 02:15:38;;;;;;;16.93;9.17;;;;;;;;;;5081626;28;20255;-70
2022/03/27 02:18:04;;;;;;;20.43;9.00;;;;;;;;;;5090448;28;20178;-70
2022/03/27 02:20:29;;;;;;;16.03;8.97;;;;;;;;;;5081614;28;20182;-70
2022/03/27 02:22:54;;;;;;;19.50;9.17;;;;;;;;;;5086815;28;20180;-70
2022/03/27 02:25:20;;;;;;;16.40;8.33;;;;;;;;;;5089648;28;20188;-70
2022/03/27 02:27:46;;;;;;;17.50;8.40;;;;;;;;;;5087280;28;20183;-70
2022/03/27 02:30:11;;;;;;;15.07;9.30;;;;;;;;;;5094742;28;20262;-70
2022/03/27 02:32:36;;;;;;;17.17;9.17;;;;;;;;;;5083850;28;20183;-70
2022/03/27 02:35:01;;;;;;;18.58;9.60;;;;;;;;;;5082856;28;20214;-70
2022/03/27 02:37:28;;;;;;;22.40;10.87;;;;;;;;;;5084921;28;20180;-70
2022/03/27 02:39:53;;;;;;;13.73;7.57;;;;;;;;;;5092993;28;20171;-69
2022/03/27 02:42:18;;;;;;;15.20;8.30;;;;;;;;;;5087457;28;20182;-70
2022/03/27 02:44:43;;;;;;;19.43;8.43;;;;;;;;;;5081120;28;20177;-70
2022/03/27 02:47:09;;;;;;;20.02;10.52;;;;;;;;;;5083019;28;20187;-70
2022/03/27 02:49:34;;;;;;;23.80;9.07;;;;;;;;;;5084731;28;20182;-70
2022/03/27 02:51:59;;;;;;;15.87;9.23;;;;;;;;;;5075596;28;20239;-70
2022/03/27 02:54:24;;;;;;;17.17;9.63;;;;;;;;;;5086455;28;20201;-70
2022/03/27 02:56:49;;;;;;;18.43;8.20;;;;;;;;;;5094054;28;20185;-70
2022/03/27 02:59:16;;;;;;;13.47;8.33;;;;;;;;;;5089300;28;20246;-70
2022/03/27 03:01:41;;;;;;;18.40;7.83;;;;;;;;;;5087211;28;20197;-70
2022/03/27 03:04:07;;;;;;;13.30;8.33;;;;;;;;;;5088217;28;20242;-70
2022/03/27 03:06:33;;;;;;;17.20;8.50;;;;;;;;;;5082233;28;20203;-70
2022/03/27 03:09:01;;;;;;;17.47;7.60;;;;;;;;;;5083728;28;20178;-70
2022/03/27 03:11:26;;;;;;;19.67;8.93;;;;;;;;;;5091080;28;20529;-70
2022/03/27 03:13:52;;;;;;;18.67;9.13;;;;;;;;;;5086488;28;20217;-70
2022/03/27 03:16:20;;;;;;;13.77;7.97;;;;;;;;;;5089535;28;20236;-70
2022/03/27 03:18:45;;;;;;;19.40;8.07;;;;;;;;;;5091547;28;20183;-70
2022/03/27 03:21:10;;;;;;;19.83;8.63;;;;;;;;;;5084521;28;20176;-70
2022/03/27 03:23:36;;;;;;;16.17;7.27;;;;;;;;;;5087860;28;20276;-70
2022/03/27 03:26:02;;;;;;;17.27;8.43;;;;;;;;;;5085606;28;20540;-70
2022/03/27 03:28:27;;;;;;;15.53;9.27;;;;;;;;;;5087604;28;20170;-70
2022/03/27 03:30:52;;;;;;;13.83;7.60;;;;;;;;;;5087813;28;20254;-70
2022/03/27 03:33:19;;;;;;;15.80;8.20;;;;;;;;;;5083825;28;20184;-70
2022/03/27 03:35:45;;;;;;;16.10;7.93;;;;;;;;;;5082997;28;20263;-70
2022/03/27 03:38:10;;;;;;;16.73;7.83;;;;;;;;;;5087245;28;20262;-70
2022/03/27 03:40:35;;;;;;;18.43;8.70;;;;;;;;;;5084187;28;20187;-70
2022/03/27 03:43:00;;;;;;;14.40;7.47;;;;;;;;;;5086602;28;20259;-70
2022/03/27 03:45:26;;;;;;;17.67;8.50;;;;;;;;;;5084589;28;20193;-70
2022/03/27 03:47:51;;;;;;;16.57;8.03;;;;;;;;;;5084553;28;20220;-70
2022/03/27 03:50:16;;;;;;;18.07;8.60;;;;;;;;;;5085651;28;20180;-70
2022/03/27 03:52:41;;;;;;;15.93;8.30;;;;;;;;;;5083676;28;20236;-70
2022/03/27 03:55:07;;;;;;;19.43;8.07;;;;;;;;;;5086964;28;20275;-70
2022/03/27 03:57:32;;;;;;;16.60;9.00;;;;;;;;;;5083515;28;20175;-70
2022/03/27 03:59:59;;;;;;;23.50;8.13;;;;;;;;;;5088580;28;20177;-70
2022/03/27 04:02:24;;;;;;;15.57;8.30;;;;;;;;;;5083737;28;20211;-70
2022/03/27 04:04:49;;;;;;;15.40;7.80;;;;;;;;;;5093834;28;20275;-70
2022/03/27 04:07:14;;;;;;;20.10;9.00;;;;;;;;;;5091406;28;20169;-70
2022/03/27 04:09:40;;;;;;;18.50;8.30;;;;;;;;;;5092288;28;20270;-70
2022/03/27 04:12:05;;;;;;;16.17;7.43;;;;;;;;;;5083560;28;20231;-70
2022/03/27 04:14:34;;;;;;;15.07;7.73;;;;;;;;;;5099271;28;20291;-70
2022/03/27 04:17:00;;;;;;;14.73;8.23;;;;;;;;;;5093668;28;20398;-70
2022/03/27 04:19:25;;;;;;;15.73;8.17;;;;;;;;;;5087744;28;20278;-70
2022/03/27 04:21:50;;;;;;;14.37;9.17;;;;;;;;;;5088893;28;20189;-70
2022/03/27 04:24:15;;;;;;;15.63;8.60;;;;;;;;;;5084874;28;20463;-70
2022/03/27 04:26:41;;;;;;;17.20;8.67;;;;;;;;;;5091080;28;20190;-70
2022/03/27 04:29:06;;;;;;;16.20;8.13;;;;;;;;;;5088621;28;20207;-70
2022/03/27 04:31:31;;;;;;;20.97;7.83;;;;;;;;;;5088148;28;20194;-70
2022/03/27 04:33:56;;;;;;;15.70;8.60;;;;;;;;;;5080838;28;20293;-70
2022/03/27 04:36:21;;;;;;;19.13;8.70;;;;;;;;;;5088112;28;20190;-70
2022/03/27 04:38:47;;;;;;;21.53;8.33;;;;;;;;;;5088421;28;20166;-72
2022/03/27 04:41:12;;;;;;;15.63;8.23;;;;;;;;;;5087965;28;20196;-72
2022/03/27 04:43:37;;;;;;;16.73;7.97;;;;;;;;;;5094312;28;20523;-72
2022/03/27 04:46:02;;;;;;;18.73;8.73;;;;;;;;;;5083451;28;20208;-72
2022/03/27 04:48:29;;;;;;;13.67;7.80;;;;;;;;;;5093912;28;20216;-73
2022/03/27 04:50:54;;;;;;;16.00;8.43;;;;;;;;;;5087303;28;20180;-72
2022/03/27 04:53:19;;;;;;;15.33;7.77;;;;;;;;;;5086888;28;20275;-72
2022/03/27 04:55:45;;;;;;;14.53;8.07;;;;;;;;;;5085396;28;20169;-72
2022/03/27 04:58:10;;;;;;;16.30;7.73;;;;;;;;;;5091177;28;20221;-72
2022/03/27 05:00:35;;;;;;;15.03;8.20;;;;;;;;;;5087170;28;20182;-72
2022/03/27 05:03:01;;;;;;;17.03;8.10;;;;;;;;;;5086179;28;20180;-72
2022/03/27 05:05:26;;;;;;;20.13;9.23;;;;;;;;;;5083786;28;20211;-72
2022/03/27 05:07:53;;;;;;;14.13;8.27;;;;;;;;;;5085200;28;20212;-72
2022/03/27 05:10:18;;;;;;;16.73;8.53;;;;;;;;;;5089473;28;20173;-73
2022/03/27 05:12:43;;;;;;;13.40;9.07;;;;;;;;;;5080912;28;20231;-73
2022/03/27 05:15:09;;;;;;;12.13;8.03;;;;;;;;;;5085237;28;20198;-72
2022/03/27 05:17:44;;;;;;;17.87;8.77;;;;;;;;;;5087081;28;20180;-72
2022/03/27 05:20:12;;;;;;;15.97;8.57;;;;;;;;;;5084148;28;20196;-72
2022/03/27 05:22:37;;;;;;;13.50;8.77;;;;;;;;;;5089562;28;20284;-72
2022/03/27 05:25:02;;;;;;;14.73;7.95;;;;;;;;;;5087018;28;20248;-72
2022/03/27 05:27:27;;;;;;;22.43;8.70;;;;;;;;;;5088540;28;20199;-72
2022/03/27 05:29:52;;;;;;;15.43;9.25;;;;;;;;;;5086401;28;20182;-72
2022/03/27 05:32:17;;;;;;;15.33;8.03;;;;;;;;;;5085702;28;20240;-72
2022/03/27 05:34:43;;;;;;;20.80;8.90;;;;;;;;;;5083980;28;20210;-72
2022/03/27 05:37:08;;;;;;;17.30;9.07;;;;;;;;;;5087318;28;20181;-70
2022/03/27 05:39:33;;;;;;;14.63;8.17;;;;;;;;;;5086084;28;20274;-70
2022/03/27 05:41:58;;;;;;;22.20;10.10;;;;;;;;;;5086431;28;20269;-70
2022/03/27 05:44:23;;;;;;;14.20;8.43;;;;;;;;;;5083449;28;21821;-70
2022/03/27 05:46:48;;;;;;;15.60;8.80;;;;;;;;;;5086165;28;20288;-70
2022/03/27 05:49:14;;;;;;;12.87;8.13;;;;;;;;;;5084683;28;20265;-70
2022/03/27 05:51:39;;;;;;;19.87;8.40;;;;;;;;;;5084567;28;20184;-70
2022/03/27 05:54:04;;;;;;;18.80;8.80;;;;;;;;;;5082213;28;20211;-70
2022/03/27 05:56:30;;;;;;;14.40;8.63;;;;;;;;;;5085039;28;20184;-70
2022/03/27 05:58:55;;;;;;;14.30;8.07;;;;;;;;;;5086135;28;20510;-70
2022/03/27 06:01:21;;;;;;;21.57;9.13;;;;;;;;;;5079760;28;20179;-70
2022/03/27 06:03:46;;;;;;;17.63;8.25;;;;;;;;;;5084100;28;20228;-70
2022/03/27 06:06:11;;;;;;;20.57;8.03;;;;;;;;;;5082425;28;20183;-70
2022/03/27 06:08:36;;;;;;;13.57;8.00;;;;;;;;;;5083609;28;20329;-70
2022/03/27 06:11:01;;;;;;;19.40;8.27;;;;;;;;;;5084011;28;20438;-70
2022/03/27 06:13:27;;;;;;;16.10;8.17;;;;;;;;;;5091914;28;20262;-70
2022/03/27 06:15:52;;;;;;;13.40;9.17;;;;;;;;;;5090813;28;20180;-70
2022/03/27 06:18:17;;;;;;;18.93;9.73;;;;;;;;;;5086410;28;20181;-70
2022/03/27 06:20:43;;;;;;;19.20;9.07;;;;;;;;;;5078930;28;20169;-70
2022/03/27 06:23:08;;;;;;;16.03;8.33;;;;;;;;;;5083865;28;20172;-70
2022/03/27 06:25:34;;;;;;;18.57;8.43;;;;;;;;;;5081746;28;20174;-70
2022/03/27 06:27:59;;;;;;;17.30;8.53;;;;;;;;;;5091902;28;20488;-70
2022/03/27 06:30:27;;;;;;;16.60;8.90;;;;;;;;;;5080320;28;20188;-70
2022/03/27 06:32:52;;;;;;;15.97;8.07;;;;;;;;;;5098933;27;20270;-70
2022/03/27 06:35:19;;;;;;;14.77;8.67;;;;;;;;;;5079319;28;20352;-70
2022/03/27 06:37:44;;;;;;;17.13;8.60;;;;;;;;;;5084895;28;20309;-70
2022/03/27 06:40:12;;;;;;;15.73;8.73;;;;;;;;;;5085524;28;20268;-70
2022/03/27 06:42:38;;;;;;;15.97;8.43;;;;;;;;;;5104694;28;20185;-70
2022/03/27 06:45:03;;;;;;;15.90;8.50;;;;;;;;;;5091919;28;20189;-70
2022/03/27 06:47:29;;;;;;;16.10;8.47;;;;;;;;;;5083844;28;20269;-70
2022/03/27 06:49:55;;;;;;;10.70;6.87;;;;;;;;;;5088579;28;20555;-70
2022/03/27 06:52:21;;;;;;;15.87;8.37;;;;;;;;;;5088756;28;20182;-70
2022/03/27 06:54:46;;;;;;;18.77;9.17;;;;;;;;;;5084476;28;20215;-70
2022/03/27 06:57:12;;;;;;;18.63;8.60;;;;;;;;;;5084667;28;20271;-70
2022/03/27 07:05:05;;;;;;;16.20;9.13;;;;;;;;;;5077090;28;20217;-70
2022/03/27 07:07:30;;;;;;;14.13;8.30;;;;;;;;;;5080623;28;20409;-70
2022/03/27 07:09:55;;;;;;;17.53;8.90;;;;;;;;;;5085141;28;20183;-70
2022/03/27 07:12:21;;;;;;;16.30;8.03;;;;;;;;;;5083549;28;20238;-70
2022/03/27 07:14:49;;;;;;;13.80;8.73;;;;;;;;;;5092086;28;20198;-70
2022/03/27 07:17:15;;;;;;;17.63;9.00;;;;;;;;;;5081319;28;20180;-70
2022/03/27 07:19:40;;;;;;;17.63;9.07;;;;;;;;;;5080571;28;20179;-70
2022/03/27 07:22:06;;;;;;;18.10;8.80;;;;;;;;;;5080767;28;20303;-70
2022/03/27 07:24:31;;;;;;;15.17;8.33;;;;;;;;;;5081997;28;20203;-70
2022/03/27 07:26:56;;;;;;;14.83;8.17;;;;;;;;;;5084049;28;20206;-70
2022/03/27 07:29:21;;;;;;;13.37;8.90;;;;;;;;;;5083060;28;20178;-69
2022/03/27 07:31:48;;;;;;;15.67;8.43;;;;;;;;;;5083296;28;20176;-70
2022/03/27 07:34:13;;;;;;;17.17;8.93;;;;;;;;;;5086127;28;20200;-69
2022/03/27 07:36:38;;;;;;;16.33;9.33;;;;;;;;;;5084289;28;20183;-70
2022/03/27 07:39:04;;;;;;;15.73;8.80;;;;;;;;;;5082994;28;20184;-70
2022/03/27 07:41:29;;;;;;;15.20;9.17;;;;;;;;;;5080635;28;20289;-70
2022/03/27 07:43:54;;;;;;;14.93;9.33;;;;;;;;;;5078697;28;20217;-70
2022/03/27 07:46:20;;;;;;;16.87;9.27;;;;;;;;;;5078660;28;20215;-69
2022/03/27 07:48:45;;;;;;;16.80;9.93;;;;;;;;;;5083087;28;20243;-70
2022/03/27 07:51:10;;;;;;;16.23;8.43;;;;;;;;;;5082374;28;20208;-70
2022/03/27 07:53:35;;;;;;;13.10;8.30;;;;;;;;;;5077267;28;20215;-70
2022/03/27 07:56:01;;;;;;;16.60;8.73;;;;;;;;;;5076850;28;20173;-70
2022/03/27 07:58:26;;;;;;;14.33;7.53;;;;;;;;;;5080169;28;20171;-70
2022/03/27 08:00:51;;;;;;;18.07;8.20;;;;;;;;;;5081014;28;20169;-70
2022/03/27 08:03:17;;;;;;;15.30;8.13;;;;;;;;;;5080432;28;20177;-70
2022/03/27 08:05:42;;;;;;;15.13;9.53;;;;;;;;;;5075872;28;20230;-70
2022/03/27 08:08:07;;;;;;;14.03;10.27;;;;;;;;;;5076579;28;20187;-70
2022/03/27 08:10:33;;;;;;;13.73;7.97;;;;;;;;;;5084529;28;20185;-70
2022/03/27 08:12:59;;;;;;;15.50;8.67;;;;;;;;;;5075287;28;20239;-70
2022/03/27 08:15:24;;;;;;;16.77;9.73;;;;;;;;;;5083037;28;20209;-70
2022/03/27 08:17:54;;;;;;;18.37;8.80;;;;;;;;;;5080408;28;20165;-70
2022/03/27 08:20:19;;;;;;;16.77;8.50;;;;;;;;;;5082011;28;20181;-76
2022/03/27 08:22:45;;;;;;;15.07;8.23;;;;;;;;;;5087970;28;20169;-73
2022/03/27 08:25:12;;;;;;;12.53;7.60;;;;;;;;;;5078566;28;20190;-73
2022/03/27 08:27:37;;;;;;;18.40;9.00;;;;;;;;;;5085422;28;20170;-73
2022/03/27 08:30:03;;;;;;;13.23;7.97;;;;;;;;;;5082741;28;20242;-73
2022/03/27 08:32:28;;;;;;;14.10;7.43;;;;;;;;;;5082602;28;20174;-73
2022/03/27 08:34:53;;;;;;;14.10;7.73;;;;;;;;;;5082190;28;20197;-73
2022/03/27 08:37:19;;;;;;;12.83;7.80;;;;;;;;;;5091364;28;20174;-73
2022/03/27 08:39:45;;;;;;;16.67;8.40;;;;;;;;;;5086266;28;20178;-73
2022/03/27 08:42:11;;;;;;;16.93;8.57;;;;;;;;;;5087868;28;20171;-73
2022/03/27 08:44:37;;;;;;;14.43;8.67;;;;;;;;;;5086251;28;20213;-73
2022/03/27 08:47:05;;;;;;;15.00;8.87;;;;;;;;;;5087386;28;20175;-73
2022/03/27 08:49:39;;;;;;;13.30;8.00;;;;;;;;;;5083571;28;20274;-73
2022/03/27 08:52:16;;;;;;;15.00;8.50;;;;;;;;;;5088850;28;20217;-73
2022/03/27 08:54:45;;;;;;;15.77;9.13;;;;;;;;;;5089061;28;20290;-73
2022/03/27 08:57:50;;;;;;;15.87;8.43;;;;;;;;;;5088038;28;20185;-73
2022/03/27 09:00:18;;;;;;;17.00;9.13;;;;;;;;;;5050840;28;20186;-73
2022/03/27 09:02:45;;;;;;;17.63;9.87;;;;;;;;;;5052649;28;20184;-73
2022/03/27 09:05:10;;;;;;;17.60;9.30;;;;;;;;;;5029247;28;20247;-73
2022/03/27 09:07:35;;;;;;;12.73;9.33;;;;;;;;;;5049328;28;20212;-73
2022/03/27 09:10:03;;;;;;;18.83;9.57;;;;;;;;;;5052538;28;20237;-73
2022/03/27 09:12:29;;;;;;;15.67;9.00;;;;;;;;;;5054129;28;20229;-73
2022/03/27 09:14:55;;;;;;;16.97;9.10;;;;;;;;;;5030007;28;20216;-73
2022/03/27 09:17:20;;;;;;;18.93;9.10;;;;;;;;;;5053201;28;20190;-73
2022/03/27 09:19:49;;;;;;;15.40;8.80;;;;;;;;;;5032157;28;20213;-73
2022/03/27 09:22:31;;;;;;;18.83;9.20;;;;;;;;;;5033253;28;20174;-73
2022/03/27 09:25:00;;;;;;;17.47;8.43;;;;;;;;;;5044984;28;20196;-73
2022/03/27 09:27:33;;;;;;;17.63;8.97;;;;;;;;;;5031821;28;20272;-73
2022/03/27 09:30:00;;;;;;;21.03;8.67;;;;;;;;;;5047242;28;20211;-73
2022/03/27 09:32:28;;;;;;;17.73;9.83;;;;;;;;;;5086744;28;20191;-73
2022/03/27 09:35:05;;;;;;;13.03;8.50;;;;;;;;;;5078483;28;20231;-73
2022/03/27 09:37:31;;;;;;;14.80;8.80;;;;;;;;;;5084686;28;20169;-73
2022/03/27 09:39:57;;;;;;;14.67;8.30;;;;;;;;;;5084229;28;20166;-74
2022/03/27 09:42:23;;;;;;;15.53;10.20;;;;;;;;;;5096367;28;20186;-74
2022/03/27 09:44:50;;;;;;;14.07;9.00;;;;;;;;;;5081847;28;20173;-73
2022/03/27 09:47:15;;;;;;;20.77;10.23;;;;;;;;;;5087910;28;20171;-73
2022/03/27 09:49:46;;;;;;;17.23;8.63;;;;;;;;;;5085073;28;20204;-73
2022/03/27 09:52:13;;;;;;;14.60;9.07;;;;;;;;;;5083299;28;20188;-74
2022/03/27 09:54:49;;;;;;;18.93;10.27;;;;;;;;;;5084683;28;20205;-73
2022/03/27 09:57:17;;;;;;;13.47;8.20;;;;;;;;;;5081832;28;20181;-73
2022/03/27 09:59:42;;;;;;;20.40;9.70;;;;;;;;;;5084385;28;20178;-73
2022/03/27 10:02:18;;;;;;;15.30;8.20;;;;;;;;;;5083072;28;20187;-73
2022/03/27 10:04:54;;;;;;;18.00;9.23;;;;;;;;;;5092827;28;20200;-73
2022/03/27 10:07:19;;;;;;;16.47;9.00;;;;;;;;;;5086047;28;20191;-73
2022/03/27 10:09:44;;;;;;;15.30;9.87;;;;;;;;;;5083992;28;20578;-73
2022/03/27 10:12:10;;;;;;;13.17;8.37;;;;;;;;;;5082743;28;20219;-72
2022/03/27 10:14:36;;;;;;;13.57;7.73;;;;;;;;;;5085415;28;20295;-73
2022/03/27 10:17:02;;;;;;;11.03;7.80;;;;;;;;;;5095551;28;20202;-74
2022/03/27 10:19:32;;;;;;;16.30;9.97;;;;;;;;;;5087806;28;20179;-74
2022/03/27 10:21:58;;;;;;;14.10;8.57;;;;;;;;;;5087565;28;20170;-74
2022/03/27 10:24:27;;;;;;;16.83;8.70;;;;;;;;;;5085521;28;20213;-73
2022/03/27 10:26:55;;;;;;;13.03;7.47;;;;;;;;;;5082411;28;20190;-73
2022/03/27 10:29:21;;;;;;;14.87;8.77;;;;;;;;;;5089037;28;20183;-73
2022/03/27 10:31:46;;;;;;;14.23;8.17;;;;;;;;;;5091021;28;20196;-73
2022/03/27 10:34:13;;;;;;;12.63;8.60;;;;;;;;;;5088891;28;20239;-73
2022/03/27 10:36:56;;;;;;;15.73;8.97;;;;;;;;;;5087025;28;20163;-73
2022/03/27 10:39:29;;;;;;;14.90;9.10;;;;;;;;;;5080740;28;20182;-74
2022/03/27 10:42:11;;;;;;;12.13;7.67;;;;;;;;;;5086903;28;20184;-73
2022/03/27 10:44:49;;;;;;;10.63;6.47;;;;;;;;;;5087663;28;20204;-73
2022/03/27 10:47:22;;;;;;;13.13;6.77;;;;;;;;;;5085998;28;20175;-74
2022/03/27 10:50:04;;;;;;;11.60;7.00;;;;;;;;;;5085885;28;20446;-73
2022/03/27 10:52:44;;;;;;;14.63;7.90;;;;;;;;;;5087439;28;20184;-73
2022/03/27 10:55:11;;;;;;;19.37;8.33;;;;;;;;;;5085694;28;20212;-73
2022/03/27 10:57:41;;;;;;;19.17;9.00;;;;;;;;;;5093604;28;20211;-74
2022/03/27 11:00:08;;;;;;;13.83;7.80;;;;;;;;;;5086177;28;20178;-73
2022/03/27 11:02:48;;;;;;;17.57;8.27;;;;;;;;;;5096388;28;20201;-73
2022/03/27 11:05:29;;;;;;;13.00;7.90;;;;;;;;;;5083865;28;20233;-74
2022/03/27 11:08:14;;;;;;;13.97;7.63;;;;;;;;;;5084026;28;20177;-73
2022/03/27 11:10:40;;;;;;;12.27;7.70;;;;;;;;;;5091416;28;20169;-73
2022/03/27 11:13:24;;;;;;;13.47;8.20;;;;;;;;;;5088434;28;20317;-73
2022/03/27 11:16:02;;;;;;;16.23;9.13;;;;;;;;;;5092298;28;20228;-73
2022/03/27 11:18:34;;;;;;;13.13;7.93;;;;;;;;;;5086761;28;20196;-73
2022/03/27 11:20:59;;;;;;;14.90;8.87;;;;;;;;;;5090510;28;20169;-73
2022/03/27 11:23:25;;;;;;;12.47;7.67;;;;;;;;;;5087637;28;20208;-73
2022/03/27 11:25:50;;;;;;;14.17;9.23;;;;;;;;;;5087437;28;20408;-73
2022/03/27 11:28:16;;;;;;;13.67;7.73;;;;;;;;;;5088092;28;20174;-73
2022/03/27 11:30:47;;;;;;;10.83;6.60;;;;;;;;;;5090624;28;20391;-73
2022/03/27 11:33:12;;;;;;;13.20;6.57;;;;;;;;;;5086601;28;20186;-73
2022/03/27 11:35:38;;;;;;;13.83;8.63;;;;;;;;;;5087146;28;20415;-74
2022/03/27 11:38:30;;;;;;;17.10;8.77;;;;;;;;;;5090114;28;20262;-73
2022/03/27 11:40:55;;;;;;;10.73;7.50;;;;;;;;;;5054450;28;20216;-74
2022/03/27 11:43:34;;;;;;;15.77;9.50;;;;;;;;;;5084643;28;20175;-74
2022/03/27 11:46:00;;;;;;;12.07;8.67;;;;;;;;;;5091447;28;20171;-74
2022/03/27 11:48:25;;;;;;;13.00;9.43;;;;;;;;;;5089343;28;20174;-74
2022/03/27 11:50:54;;;;;;;17.47;9.93;;;;;;;;;;5087329;28;20262;-74
2022/03/27 11:53:32;;;;;;;15.30;9.37;;;;;;;;;;5101285;28;20266;-73
2022/03/27 11:56:06;;;;;;;14.63;8.87;;;;;;;;;;5084656;28;20205;-74
2022/03/27 11:58:32;;;;;;;15.87;7.63;;;;;;;;;;5085302;28;20181;-74
2022/03/27 12:01:01;;;;;;;15.93;8.33;;;;;;;;;;5088771;28;20221;-73
2022/03/27 12:03:26;;;;;;;17.23;9.10;;;;;;;;;;5082730;28;20180;-74
2022/03/27 12:05:54;;;;;;;18.17;9.47;;;;;;;;;;5084529;28;20198;-73
2022/03/27 12:08:19;;;;;;;13.33;8.23;;;;;;;;;;5093356;28;20215;-74
2022/03/27 12:10:46;;;;;;;15.23;8.27;;;;;;;;;;5080138;28;20184;-74
2022/03/27 12:13:13;;;;;;;14.27;9.67;;;;;;;;;;5078883;28;20236;-74
2022/03/27 12:15:46;;;;;;;14.47;7.43;;;;;;;;;;5095430;28;20226;-73
2022/03/27 12:18:14;;;;;;;13.20;9.00;;;;;;;;;;5091144;28;20180;-73
2022/03/27 12:20:44;;;;;;;13.70;8.07;;;;;;;;;;5086644;28;20234;-73
2022/03/27 12:23:29;;;;;;;13.30;8.90;;;;;;;;;;5088826;28;20170;-73
2022/03/27 12:25:55;;;;;;;16.27;8.20;;;;;;;;;;5100936;28;20233;-73
2022/03/27 12:31:17;;;;;;;13.80;9.80;;;;;;;;;;5095936;28;20185;-73
2022/03/27 12:33:42;;;;;;;14.20;9.00;;;;;;;;;;5092429;28;20180;-74
2022/03/27 12:36:13;;;;;;;16.23;10.07;;;;;;;;;;5094383;28;20167;-73
2022/03/27 12:38:39;;;;;;;14.87;9.53;;;;;;;;;;5094841;28;20168;-74
2022/03/27 12:41:04;;;;;;;13.93;9.57;;;;;;;;;;5094056;27;20181;-74
2022/03/27 12:43:29;;;;;;;13.53;8.20;;;;;;;;;;5095668;28;20554;-74
2022/03/27 12:45:55;;;;;;;14.77;8.37;;;;;;;;;;5094687;28;20241;-73
2022/03/27 12:48:21;;;;;;;11.63;7.20;;;;;;;;;;5085222;28;20173;-74
2022/03/27 12:50:54;;;;;;;13.37;7.70;;;;;;;;;;5091356;28;20193;-73
2022/03/27 12:53:22;;;;;;;12.27;7.23;;;;;;;;;;5091353;28;20213;-73
2022/03/27 12:55:48;;;;;;;13.57;8.00;;;;;;;;;;5091314;28;20189;-74
2022/03/27 12:58:16;;;;;;;12.27;8.47;;;;;;;;;;5086724;28;20176;-74
2022/03/27 13:00:41;;;;;;;13.23;8.13;;;;;;;;;;5090519;28;20174;-74
2022/03/27 13:03:08;;;;;;;13.90;8.43;;;;;;;;;;5089997;28;20204;-74
2022/03/27 13:05:33;;;;;;;17.57;8.20;;;;;;;;;;5089003;28;20230;-74
2022/03/27 13:07:58;;;;;;;15.50;8.03;;;;;;;;;;5089749;28;20174;-73
2022/03/27 13:10:24;;;;;;;17.33;9.17;;;;;;;;;;5096373;28;20189;-74
2022/03/27 13:12:57;;;;;;;11.30;7.30;;;;;;;;;;5088049;28;20286;-73
2022/03/27 13:15:39;;;;;;;10.27;6.90;;;;;;;;;;5083498;28;20223;-74
2022/03/27 13:18:18;;;;;;;14.97;6.90;;;;;;;;;;5090705;28;20187;-74
2022/03/27 13:20:44;;;;;;;10.67;6.70;;;;;;;;;;5075517;28;20184;-73
2022/03/27 13:23:09;;;;;;;10.17;6.30;;;;;;;;;;5086035;28;20257;-74
2022/03/27 13:25:35;;;;;;;11.40;7.07;;;;;;;;;;5088126;28;20185;-74
2022/03/27 13:28:00;;;;;;;11.73;7.10;;;;;;;;;;5089794;28;20175;-73
2022/03/27 13:30:27;;;;;;;9.50;6.60;;;;;;;;;;5088514;28;20175;-73
2022/03/27 13:32:52;;;;;;;11.57;7.37;;;;;;;;;;5088141;28;20179;-74
2022/03/27 13:35:17;;;;;;;12.93;7.77;;;;;;;;;;5088572;28;20214;-74
2022/03/27 13:37:43;;;;;;;10.93;7.97;;;;;;;;;;5088469;28;20263;-73
2022/03/27 13:40:09;;;;;;;13.83;6.57;;;;;;;;;;5091098;28;20183;-74
2022/03/27 13:45:18;;;;;;;9.90;7.50;;;;;;;;;;5094445;28;20234;-74
2022/03/27 13:47:43;;;;;;;11.00;6.80;;;;;;;;;;5090685;28;20190;-73
2022/03/27 13:50:09;;;;;;;11.37;7.03;;;;;;;;;;5086518;28;20176;-73
2022/03/27 13:52:34;;;;;;;11.43;7.13;;;;;;;;;;5089940;28;20191;-73
2022/03/27 13:54:59;;;;;;;11.13;6.80;;;;;;;;;;5087380;28;20202;-73
2022/03/27 13:57:25;;;;;;;14.03;7.87;;;;;;;;;;5090612;28;20184;-73
2022/03/27 13:59:51;;;;;;;10.33;6.13;;;;;;;;;;5089071;28;20173;-73
2022/03/27 14:02:17;;;;;;;12.73;7.60;;;;;;;;;;5088343;28;20171;-73
2022/03/27 14:04:42;;;;;;;14.43;7.50;;;;;;;;;;5093315;28;20317;-73
2022/03/27 14:07:07;;;;;;;20.43;8.00;;;;;;;;;;5084686;28;20265;-74
2022/03/27 14:09:34;;;;;;;11.13;7.40;;;;;;;;;;5092082;28;20241;-74
2022/03/27 14:11:59;;;;;;;8.47;6.03;;;;;;;;;;5086742;28;20184;-73
2022/03/27 14:14:24;;;;;;;11.97;6.87;;;;;;;;;;5090357;28;20200;-74
2022/03/27 14:16:52;;;;;;;8.38;5.95;;;;;;;;;;5097805;28;20209;-74
2022/03/27 14:19:17;;;;;;;10.30;7.03;;;;;;;;;;5088733;28;20505;-73
2022/03/27 14:21:43;;;;;;;10.90;7.93;;;;;;;;;;5095096;28;20166;-74
2022/03/27 14:24:08;;;;;;;9.43;6.93;;;;;;;;;;5091091;28;20218;-73
2022/03/27 14:26:34;;;;;;;12.60;7.10;;;;;;;;;;5088465;28;20203;-74
2022/03/27 14:28:59;;;;;;;12.60;7.70;;;;;;;;;;5088094;28;20266;-73
2022/03/27 14:31:24;;;;;;;12.07;6.57;;;;;;;;;;5085447;28;20280;-73
2022/03/27 14:33:49;;;;;;;11.07;7.93;;;;;;;;;;5086035;28;20171;-73
2022/03/27 14:36:15;;;;;;;28.07;9.23;;;;;;;;;;5082911;28;20169;-74
2022/03/27 14:38:40;;;;;;;12.53;7.70;;;;;;;;;;5087190;28;20170;-73
2022/03/27 14:41:05;;;;;;;11.13;6.70;;;;;;;;;;5087659;28;20172;-73
2022/03/27 14:43:31;;;;;;;12.20;7.90;;;;;;;;;;5090238;28;20180;-73
2022/03/27 14:45:58;;;;;;;8.77;6.57;;;;;;;;;;5085475;28;20169;-73